createdAt,value
2019-02-20T00:00:58.711Z,27.23
2019-02-20T00:03:24.756Z,24.40
2019-02-20T00:05:50.767Z,27.97
2019-02-20T00:08:16.860Z,33.03
2019-02-20T00:10:42.883Z,29.80
2019-02-20T00:13:08.990Z,23.17
2019-02-20T00:15:35.303Z,21.50
2019-02-20T00:18:03.067Z,17.37
2019-02-20T00:20:29.152Z,23.50
2019-02-20T00:22:55.181Z,29.23
2019-02-20T00:25:21.191Z,29.77
2019-02-20T00:27:47.223Z,38.33
2019-02-20T00:30:13.231Z,33.53
2019-02-20T00:32:39.260Z,31.67
2019-02-20T00:35:05.471Z,42.23
2019-02-20T00:37:31.539Z,32.33
2019-02-20T00:39:57.537Z,26.83
2019-02-20T00:42:23.944Z,29.17
2019-02-20T00:44:54.623Z,28.03
2019-02-20T00:47:38.935Z,27.00
2019-02-20T00:50:05.152Z,22.73
2019-02-20T00:52:35.889Z,30.23
2019-02-20T00:55:06.103Z,30.80
2019-02-20T00:57:35.255Z,33.48
2019-02-20T01:00:02.377Z,31.00
2019-02-20T01:02:28.487Z,27.77
2019-02-20T01:04:54.524Z,29.13
2019-02-20T01:07:20.535Z,29.20
2019-02-20T01:09:46.568Z,28.93
2019-02-20T01:12:12.580Z,27.63
2019-02-20T01:14:38.655Z,29.43
2019-02-20T01:17:04.772Z,18.30
2019-02-20T01:19:30.804Z,20.23
2019-02-20T01:21:56.833Z,21.20
2019-02-20T01:24:22.848Z,22.07
2019-02-20T01:26:48.870Z,23.00
2019-02-20T01:29:14.891Z,21.10
2019-02-20T01:31:40.899Z,20.87
2019-02-20T01:34:06.931Z,18.80
2019-02-20T01:36:32.947Z,20.33
2019-02-20T01:38:58.979Z,18.97
2019-02-20T01:41:25.016Z,22.70
2019-02-20T01:43:51.040Z,26.47
2019-02-20T01:46:17.055Z,21.47
2019-02-20T01:48:43.092Z,21.73
2019-02-20T01:51:09.161Z,19.93
2019-02-20T01:53:35.179Z,17.83
2019-02-20T01:56:01.203Z,23.90
2019-02-20T01:58:27.235Z,23.73
2019-02-20T02:00:53.352Z,25.30
2019-02-20T02:03:19.392Z,21.77
2019-02-20T02:05:45.404Z,18.63
2019-02-20T02:08:11.456Z,22.10
2019-02-20T02:10:37.471Z,19.10
2019-02-20T02:13:03.491Z,22.60
2019-02-20T02:15:29.531Z,25.40
2019-02-20T02:17:55.540Z,22.10
2019-02-20T02:20:21.590Z,20.20
2019-02-20T02:22:47.604Z,25.27
2019-02-20T02:25:13.640Z,20.03
2019-02-20T02:27:39.653Z,21.80
2019-02-20T02:30:09.566Z,20.27
2019-02-20T02:32:35.581Z,21.07
2019-02-20T02:35:01.810Z,20.63
2019-02-20T02:37:27.828Z,22.40
2019-02-20T02:39:53.854Z,29.47
2019-02-20T02:42:19.964Z,24.93
2019-02-20T02:44:45.997Z,27.87
2019-02-20T02:47:13.087Z,30.37
2019-02-20T02:49:39.220Z,28.87
2019-02-20T02:52:05.232Z,36.77
2019-02-20T02:54:31.265Z,21.70
2019-02-20T02:56:57.275Z,24.67
2019-02-20T02:59:23.315Z,22.70
2019-02-20T03:01:49.322Z,33.40
2019-02-20T03:04:15.368Z,27.73
2019-02-20T03:06:41.381Z,32.20
2019-02-20T03:09:07.913Z,26.33
2019-02-20T03:11:34.016Z,38.20
2019-02-20T03:14:00.143Z,38.63
2019-02-20T03:16:26.160Z,34.57
2019-02-20T03:18:52.194Z,37.80
2019-02-20T03:21:18.241Z,53.57
2019-02-20T03:23:44.260Z,59.40
2019-02-20T03:28:42.283Z,65.23
2019-02-20T03:31:08.320Z,80.70
2019-02-20T03:33:34.365Z,97.33
2019-02-20T03:36:02.255Z,87.20
2019-02-20T03:38:30.579Z,131.53
2019-02-20T03:40:56.204Z,128.20
2019-02-20T03:43:22.338Z,116.77
2019-02-20T03:45:48.367Z,226.00
2019-02-20T03:48:34.285Z,199.30
2019-02-20T03:51:00.319Z,226.10
2019-02-20T03:53:26.333Z,269.83
2019-02-20T03:55:52.667Z,305.87
2019-02-20T03:58:18.737Z,186.87
2019-02-20T04:00:44.766Z,236.30
2019-02-20T04:03:10.788Z,159.13
2019-02-20T04:05:36.825Z,179.50
2019-02-20T04:08:02.855Z,118.27
2019-02-20T04:10:28.896Z,178.97
2019-02-20T04:12:55.006Z,159.00
2019-02-20T04:15:21.025Z,311.27
2019-02-20T04:17:47.057Z,147.80
2019-02-20T04:20:13.076Z,154.33
2019-02-20T04:22:39.108Z,163.23
2019-02-20T04:25:05.241Z,167.30
2019-02-20T04:27:31.252Z,182.10
2019-02-20T04:29:57.291Z,137.80
2019-02-20T04:32:23.304Z,207.50
2019-02-20T04:34:49.341Z,215.03
2019-02-20T04:37:15.353Z,190.27
2019-02-20T04:39:41.393Z,217.40
2019-02-20T04:42:07.404Z,153.10
2019-02-20T04:44:33.436Z,202.57
2019-02-20T04:46:59.459Z,237.60
2019-02-20T04:49:25.488Z,244.57
2019-02-20T04:51:51.573Z,207.80
2019-02-20T04:54:17.659Z,397.70
2019-02-20T04:56:43.764Z,142.23
2019-02-20T04:59:09.896Z,104.77
2019-02-20T05:01:35.918Z,212.20
2019-02-20T05:04:02.097Z,256.80
2019-02-20T05:06:28.195Z,150.60
2019-02-20T05:08:54.245Z,134.23
2019-02-20T05:11:20.324Z,309.35
2019-02-20T05:13:46.372Z,203.70
2019-02-20T05:16:12.379Z,151.53
2019-02-20T05:18:38.427Z,139.00
2019-02-20T05:21:04.447Z,78.53
2019-02-20T05:23:30.496Z,129.10
2019-02-20T05:25:56.503Z,99.23
2019-02-20T05:28:22.539Z,156.10
2019-02-20T05:30:48.553Z,125.13
2019-02-20T05:33:14.581Z,64.97
2019-02-20T05:35:40.612Z,84.40
2019-02-20T05:38:06.625Z,146.00
2019-02-20T05:40:32.683Z,155.03
2019-02-20T05:42:58.695Z,118.97
2019-02-20T05:45:24.727Z,135.00
2019-02-20T05:47:50.841Z,130.43
2019-02-20T05:50:16.892Z,94.57
2019-02-20T05:52:42.914Z,88.63
2019-02-20T05:55:08.955Z,143.77
2019-02-20T05:57:36.517Z,115.17
2019-02-20T06:00:06.571Z,141.90
2019-02-20T06:02:32.619Z,126.60
2019-02-20T06:04:58.800Z,130.60
2019-02-20T06:07:24.841Z,136.43
2019-02-20T06:09:50.890Z,151.03
2019-02-20T06:12:16.904Z,155.60
2019-02-20T06:14:42.942Z,237.43
2019-02-20T06:17:09.028Z,226.20
2019-02-20T06:19:35.100Z,111.87
2019-02-20T06:22:01.118Z,141.23
2019-02-20T06:24:27.156Z,148.40
2019-02-20T06:26:53.174Z,266.33
2019-02-20T06:29:20.287Z,162.70
2019-02-20T06:31:46.565Z,191.17
2019-02-20T06:34:12.664Z,197.20
2019-02-20T06:36:38.679Z,141.23
2019-02-20T06:39:04.801Z,198.67
2019-02-20T06:41:38.639Z,139.23
2019-02-20T06:43:58.752Z,151.07
2019-02-20T06:46:24.763Z,199.80
2019-02-20T06:48:50.783Z,157.47
2019-02-20T06:51:16.827Z,127.77
2019-02-20T06:53:42.844Z,107.43
2019-02-20T06:56:08.875Z,95.90
2019-02-20T06:58:34.965Z,229.53
2019-02-20T07:01:01.079Z,124.30
2019-02-20T07:03:27.206Z,102.60
2019-02-20T07:05:59.962Z,120.77
2019-02-20T07:08:57.563Z,169.90
2019-02-20T07:11:33.474Z,143.97
2019-02-20T07:14:21.174Z,246.27
2019-02-20T07:16:50.995Z,88.27
2019-02-20T07:19:23.860Z,218.43
2019-02-20T07:21:59.807Z,163.03
2019-02-20T07:24:32.682Z,374.27
2019-02-20T07:27:05.105Z,114.30
2019-02-20T07:29:47.391Z,149.50
2019-02-20T07:32:14.907Z,99.37
2019-02-20T07:34:40.943Z,88.93
2019-02-20T07:37:06.955Z,73.67
2019-02-20T07:39:32.993Z,71.57
2019-02-20T07:41:59.020Z,65.10
2019-02-20T07:44:25.073Z,79.80
2019-02-20T07:46:51.067Z,60.50
2019-02-20T07:49:17.102Z,61.57
2019-02-20T07:51:43.184Z,63.63
2019-02-20T07:54:09.239Z,60.40
2019-02-20T07:56:35.256Z,74.40
2019-02-20T07:59:02.107Z,61.80
2019-02-20T08:01:28.120Z,59.47
2019-02-20T08:03:54.169Z,111.80
2019-02-20T08:06:20.187Z,60.77
2019-02-20T08:08:46.224Z,98.73
2019-02-20T08:11:12.245Z,87.57
2019-02-20T08:13:39.534Z,134.80
2019-02-20T08:16:05.702Z,77.77
2019-02-20T08:18:31.716Z,89.93
2019-02-20T08:20:57.748Z,123.10
2019-02-20T08:23:23.767Z,168.40
2019-02-20T08:25:49.824Z,130.70
2019-02-20T08:28:15.838Z,69.00
2019-02-20T08:30:41.868Z,64.60
2019-02-20T08:33:07.987Z,54.97
2019-02-20T08:35:34.016Z,55.57
2019-02-20T08:38:00.033Z,58.03
2019-02-20T08:40:26.079Z,50.97
2019-02-20T08:42:52.096Z,63.53
2019-02-20T08:45:18.137Z,61.37
2019-02-20T08:47:44.141Z,134.50
2019-02-20T08:50:11.380Z,127.40
2019-02-20T08:52:37.423Z,97.10
2019-02-20T08:55:08.419Z,66.43
2019-02-20T08:57:34.432Z,75.80
2019-02-20T09:00:02.071Z,64.83
2019-02-20T09:02:28.147Z,109.87
2019-02-20T09:04:54.823Z,61.60
2019-02-20T09:07:21.107Z,55.83
2019-02-20T09:09:47.139Z,52.97
2019-02-20T09:12:13.155Z,62.10
2019-02-20T09:14:39.195Z,55.70
2019-02-20T09:17:05.225Z,50.20
2019-02-20T09:19:31.327Z,54.10
2019-02-20T09:21:57.343Z,57.83
2019-02-20T09:24:23.383Z,57.10
2019-02-20T09:26:49.401Z,52.90
2019-02-20T09:29:15.415Z,60.00
2019-02-20T09:31:41.463Z,50.87
2019-02-20T09:34:07.480Z,50.10
2019-02-20T09:36:33.591Z,53.87
2019-02-20T09:39:21.419Z,56.40
2019-02-20T09:41:47.455Z,58.30
2019-02-20T09:44:13.467Z,52.80
2019-02-20T09:46:39.507Z,69.47
2019-02-20T09:49:05.520Z,68.57
2019-02-20T09:51:31.568Z,61.87
2019-02-20T09:53:57.599Z,62.83
2019-02-20T09:56:23.633Z,61.73
2019-02-20T09:58:49.654Z,64.33
2019-02-20T10:01:15.708Z,66.07
2019-02-20T10:03:41.728Z,50.63
2019-02-20T10:06:07.779Z,47.93
2019-02-20T10:08:33.806Z,52.43
2019-02-20T10:10:59.841Z,58.80
2019-02-20T10:13:25.859Z,56.23
2019-02-20T10:15:51.937Z,61.63
2019-02-20T10:18:18.020Z,61.63
2019-02-20T10:20:44.055Z,76.10
2019-02-20T10:23:10.175Z,81.53
2019-02-20T10:25:36.214Z,81.97
2019-02-20T10:28:02.319Z,80.00
2019-02-20T10:30:28.358Z,76.77
2019-02-20T10:32:54.375Z,71.50
2019-02-20T10:35:20.420Z,80.53
2019-02-20T10:37:46.425Z,72.17
2019-02-20T10:40:12.571Z,72.87
2019-02-20T10:42:38.588Z,64.47
2019-02-20T10:45:07.723Z,77.93
2019-02-20T10:47:33.749Z,70.20
2019-02-20T10:49:59.771Z,70.97
2019-02-20T10:52:25.804Z,74.13
2019-02-20T10:54:57.534Z,76.80
2019-02-20T10:57:19.759Z,81.13
2019-02-20T10:59:45.777Z,82.57
2019-02-20T11:02:12.016Z,67.93
2019-02-20T11:04:38.092Z,66.00
2019-02-20T11:07:04.227Z,67.97
2019-02-20T11:09:31.859Z,67.10
2019-02-20T11:11:58.079Z,59.80
2019-02-20T11:14:24.100Z,62.20
2019-02-20T11:16:50.148Z,55.10
2019-02-20T11:19:16.176Z,49.90
2019-02-20T11:21:42.220Z,55.20
2019-02-20T11:24:08.231Z,48.57
2019-02-20T11:26:42.211Z,44.50
2019-02-20T11:29:02.201Z,49.73
2019-02-20T11:31:28.227Z,44.23
2019-02-20T11:33:54.348Z,52.30
2019-02-20T11:36:20.390Z,51.80
2019-02-20T11:38:46.399Z,55.97
2019-02-20T11:41:13.526Z,40.33
2019-02-20T11:43:39.755Z,49.33
2019-02-20T11:46:05.790Z,44.37
2019-02-20T11:48:31.807Z,50.53
2019-02-20T11:50:57.866Z,45.73
2019-02-20T11:53:23.891Z,43.40
2019-02-20T11:55:49.923Z,37.73
2019-02-20T11:58:15.939Z,35.07
2019-02-20T12:00:42.019Z,32.40
2019-02-20T12:03:08.087Z,35.20
2019-02-20T12:05:34.169Z,28.67
2019-02-20T12:08:00.179Z,26.37
2019-02-20T12:10:26.194Z,18.80
2019-02-20T12:12:52.226Z,27.63
2019-02-20T12:15:18.241Z,25.20
2019-02-20T12:17:46.449Z,31.93
2019-02-20T12:20:12.470Z,29.50
2019-02-20T12:22:38.523Z,22.30
2019-02-20T12:25:06.544Z,21.23
2019-02-20T12:27:33.175Z,21.00
2019-02-20T12:29:59.388Z,23.93
2019-02-20T12:32:25.438Z,23.50
2019-02-20T12:34:51.456Z,25.40
2019-02-20T12:37:17.505Z,22.47
2019-02-20T12:39:43.511Z,24.30
2019-02-20T12:42:09.577Z,21.83
2019-02-20T12:44:35.725Z,19.50
2019-02-20T12:47:01.771Z,25.20
2019-02-20T12:49:27.793Z,28.13
2019-02-20T12:51:53.847Z,24.83
2019-02-20T12:54:19.863Z,23.43
2019-02-20T12:56:45.904Z,34.17
2019-02-20T12:59:11.926Z,23.07
2019-02-20T13:01:37.947Z,31.00
2019-02-20T13:04:04.015Z,35.30
2019-02-20T13:06:30.039Z,19.80
2019-02-20T13:08:56.074Z,19.63
2019-02-20T13:11:22.104Z,26.27
2019-02-20T13:13:49.131Z,18.43
2019-02-20T13:16:15.364Z,18.73
2019-02-20T13:18:41.375Z,18.77
2019-02-20T13:21:07.422Z,20.03
2019-02-20T13:23:33.430Z,18.17
2019-02-20T13:25:59.771Z,21.87
2019-02-20T13:28:25.841Z,17.60
2019-02-20T13:30:51.933Z,22.13
2019-02-20T13:33:17.948Z,24.17
2019-02-20T13:35:44.013Z,20.73
2019-02-20T13:38:10.026Z,16.77
2019-02-20T13:40:36.055Z,19.83
2019-02-20T13:43:02.074Z,29.43
2019-02-20T13:45:28.122Z,13.60
2019-02-20T13:47:54.328Z,15.63
2019-02-20T13:50:20.764Z,10.63
2019-02-20T13:52:52.323Z,17.33
2019-02-20T13:55:14.821Z,14.83
2019-02-20T13:57:40.947Z,12.97
2019-02-20T14:00:09.970Z,13.85
2019-02-20T14:02:36.004Z,12.63
2019-02-20T14:05:02.322Z,13.03
2019-02-20T14:07:28.448Z,11.30
2019-02-20T14:09:54.968Z,15.00
2019-02-20T14:12:21.007Z,12.30
2019-02-20T14:14:47.027Z,23.53
2019-02-20T14:17:13.164Z,14.73
2019-02-20T14:19:39.182Z,23.03
2019-02-20T14:22:05.211Z,14.60
2019-02-20T14:24:31.242Z,10.47
2019-02-20T14:26:57.381Z,15.80
2019-02-20T14:29:23.491Z,13.53
2019-02-20T14:31:49.963Z,23.20
2019-02-20T14:34:16.060Z,14.07
2019-02-20T14:36:42.107Z,19.90
2019-02-20T14:39:08.148Z,13.67
2019-02-20T14:41:34.175Z,11.40
2019-02-20T14:44:00.186Z,12.37
2019-02-20T14:46:26.221Z,11.13
2019-02-20T14:48:52.240Z,15.43
2019-02-20T14:51:18.282Z,11.77
2019-02-20T14:53:44.795Z,11.23
2019-02-20T14:56:10.836Z,11.27
2019-02-20T14:58:36.843Z,11.33
2019-02-20T15:01:03.372Z,11.23
2019-02-20T15:03:29.379Z,12.97
2019-02-20T15:05:55.391Z,14.17
2019-02-20T15:08:21.430Z,21.00
2019-02-20T15:10:47.452Z,11.60
2019-02-20T15:13:13.511Z,15.40
2019-02-20T15:15:39.840Z,12.50
2019-02-20T15:18:05.969Z,14.37
2019-02-20T15:20:32.001Z,11.50
2019-02-20T15:22:58.488Z,14.97
2019-02-20T15:25:24.580Z,13.80
2019-02-20T15:27:51.899Z,17.50
2019-02-20T15:30:17.904Z,15.97
2019-02-20T15:32:43.950Z,16.23
2019-02-20T15:35:10.378Z,15.93
2019-02-20T15:37:36.578Z,17.87
2019-02-20T15:40:04.400Z,25.50
2019-02-20T15:42:30.547Z,15.10
2019-02-20T15:44:56.568Z,19.07
2019-02-20T15:47:22.606Z,18.20
2019-02-20T15:49:48.615Z,23.07
2019-02-20T15:52:14.651Z,14.50
2019-02-20T15:54:40.665Z,13.80
2019-02-20T15:57:07.111Z,17.33
2019-02-20T15:59:33.220Z,16.33
2019-02-20T16:01:59.262Z,13.47
2019-02-20T16:04:25.275Z,15.13
2019-02-20T16:06:51.311Z,17.97
2019-02-20T16:09:17.327Z,13.03
2019-02-20T16:11:43.360Z,16.42
2019-02-20T16:14:09.401Z,13.10
2019-02-20T16:16:35.499Z,30.33
2019-02-20T16:19:01.927Z,25.93
2019-02-20T16:21:29.589Z,19.43
2019-02-20T16:23:55.892Z,21.10
2019-02-20T16:26:22.026Z,17.97
2019-02-20T16:28:48.148Z,18.50
2019-02-20T16:31:14.160Z,17.80
2019-02-20T16:33:40.834Z,21.30
2019-02-20T16:36:06.889Z,21.40
2019-02-20T16:38:32.920Z,21.23
2019-02-20T16:40:59.132Z,21.23
2019-02-20T16:43:25.196Z,26.63
2019-02-20T16:45:51.215Z,29.13
2019-02-20T16:48:17.245Z,27.90
2019-02-20T16:50:43.270Z,23.37
2019-02-20T16:53:09.300Z,23.70
2019-02-20T16:55:35.323Z,18.97
2019-02-20T16:58:03.871Z,23.90
2019-02-20T17:00:29.782Z,26.20
2019-02-20T17:02:55.816Z,23.37
2019-02-20T17:05:22.037Z,32.37
2019-02-20T17:07:48.063Z,21.83
2019-02-20T17:10:14.179Z,30.90
2019-02-20T17:12:40.400Z,29.50
2019-02-20T17:15:14.984Z,28.33
2019-02-20T17:17:41.071Z,30.83
2019-02-20T17:20:13.172Z,36.03
2019-02-20T17:22:39.283Z,31.30
2019-02-20T17:25:07.715Z,29.33
2019-02-20T17:27:36.531Z,28.20
2019-02-20T17:30:05.585Z,31.53
2019-02-20T17:32:32.399Z,19.10
2019-02-20T17:34:58.436Z,15.50
2019-02-20T17:37:24.747Z,17.27
2019-02-20T17:39:50.779Z,26.27
2019-02-20T17:42:16.844Z,25.27
2019-02-20T17:44:42.960Z,32.53
2019-02-20T17:47:08.979Z,21.33
2019-02-20T17:49:35.048Z,21.47
2019-02-20T17:52:01.061Z,25.97
2019-02-20T17:54:27.138Z,28.80
2019-02-20T17:56:53.567Z,29.00
2019-02-20T17:59:19.608Z,29.40
2019-02-20T18:01:45.688Z,32.93
2019-02-20T18:04:11.759Z,26.33
2019-02-20T18:06:37.861Z,32.70
2019-02-20T18:09:05.493Z,26.83
2019-02-20T18:11:31.512Z,33.47
2019-02-20T18:13:57.575Z,26.27
2019-02-20T18:16:23.635Z,29.00
2019-02-20T18:18:49.671Z,20.93
2019-02-20T18:21:15.682Z,26.43
2019-02-20T18:23:41.716Z,23.10
2019-02-20T18:26:07.746Z,20.20
2019-02-20T18:28:33.855Z,21.82
2019-02-20T18:31:00.006Z,18.60
2019-02-20T18:33:26.020Z,22.80
2019-02-20T18:35:52.051Z,34.57
2019-02-20T18:38:18.075Z,17.17
2019-02-20T18:40:44.136Z,24.10
2019-02-20T18:43:10.310Z,24.07
2019-02-20T18:45:56.223Z,23.83
2019-02-20T18:48:22.311Z,24.33
2019-02-20T18:50:49.213Z,24.27
2019-02-20T18:53:15.240Z,38.23
2019-02-20T18:55:41.259Z,22.13
2019-02-20T18:58:07.268Z,32.83
2019-02-20T19:00:33.359Z,28.20
2019-02-20T19:03:00.048Z,32.73
2019-02-20T19:05:26.219Z,19.10
2019-02-20T19:07:52.221Z,22.67
2019-02-20T19:10:34.307Z,18.07
2019-02-20T19:13:21.906Z,23.23
2019-02-20T19:15:54.971Z,26.90
2019-02-20T19:18:31.119Z,16.20
2019-02-20T19:21:23.251Z,21.27
2019-02-20T19:24:13.092Z,22.30
2019-02-20T19:26:57.490Z,19.70
2019-02-20T19:29:47.507Z,20.00
2019-02-20T19:32:45.958Z,27.60
2019-02-20T19:35:24.331Z,19.00
2019-02-20T19:38:14.016Z,20.13
2019-02-20T19:41:12.476Z,28.67
2019-02-20T19:43:42.320Z,23.20
2019-02-20T19:46:18.103Z,23.47
2019-02-20T19:49:10.452Z,34.70
2019-02-20T19:51:52.167Z,32.83
2019-02-20T19:54:22.011Z,38.70
2019-02-20T19:57:14.636Z,65.50
2019-02-20T19:59:53.189Z,32.87
2019-02-20T20:02:28.896Z,25.63
2019-02-20T20:05:07.638Z,32.87
2019-02-20T20:07:49.415Z,36.33
2019-02-20T20:10:31.372Z,65.57
2019-02-20T20:13:19.077Z,48.40
2019-02-20T20:16:01.247Z,50.33
2019-02-20T20:18:45.857Z,47.97
2019-02-20T20:21:24.588Z,46.87
2019-02-20T20:24:00.550Z,42.93
2019-02-20T20:26:47.282Z,48.17
2019-02-20T20:29:42.576Z,39.90
2019-02-20T20:32:18.067Z,38.50
2019-02-20T20:35:03.069Z,28.57
2019-02-20T20:37:32.900Z,36.47
2019-02-20T20:40:17.935Z,32.37
2019-02-20T20:42:51.862Z,34.50
2019-02-20T20:45:39.901Z,30.37
2019-02-20T20:48:27.371Z,30.23
2019-02-20T20:51:09.583Z,23.67
2019-02-20T20:54:03.500Z,28.43
2019-02-20T20:56:42.546Z,28.67
2019-02-20T20:59:21.263Z,32.17
2019-02-20T21:01:51.132Z,28.33
2019-02-20T21:04:51.135Z,23.47
2019-02-20T21:07:37.966Z,40.20
2019-02-20T21:10:34.852Z,41.37
2019-02-20T21:13:21.684Z,38.50
2019-02-20T21:16:08.397Z,28.87
2019-02-20T21:18:58.995Z,28.00
2019-02-20T21:21:31.839Z,35.30
2019-02-20T21:24:02.068Z,34.73
2019-02-20T21:26:43.645Z,39.20
2019-02-20T21:29:34.303Z,35.63
2019-02-20T21:32:04.148Z,38.60
2019-02-20T21:34:36.724Z,31.13
2019-02-20T21:37:33.632Z,36.43
2019-02-20T21:40:09.803Z,39.87
2019-02-20T21:42:45.676Z,23.83
2019-02-20T21:45:15.496Z,24.53
2019-02-20T21:48:08.128Z,30.50
2019-02-20T21:50:47.020Z,28.10
2019-02-20T21:53:23.127Z,30.07
2019-02-20T21:55:59.103Z,25.33
2019-02-20T21:58:43.812Z,30.70
2019-02-20T22:01:40.806Z,24.07
2019-02-20T22:04:10.639Z,27.83
2019-02-20T22:07:02.047Z,25.63
2019-02-20T22:09:41.177Z,31.00
2019-02-20T22:12:27.499Z,28.63
2019-02-20T22:15:27.647Z,25.93
2019-02-20T22:17:57.531Z,31.30
2019-02-20T22:20:33.412Z,41.27
2019-02-20T22:23:33.225Z,38.50
2019-02-20T22:26:08.783Z,36.50
2019-02-20T22:28:44.388Z,35.43
2019-02-20T22:31:32.184Z,30.37
2019-02-20T22:34:17.206Z,27.77
2019-02-20T22:36:53.369Z,25.57
2019-02-20T22:39:44.492Z,31.10
2019-02-20T22:42:16.999Z,30.67
2019-02-20T22:45:03.257Z,31.83
2019-02-20T22:47:59.263Z,29.27
2019-02-20T22:51:02.971Z,36.57
2019-02-20T22:53:38.433Z,45.83
2019-02-20T22:56:37.156Z,38.93
2019-02-20T22:59:31.151Z,46.17
2019-02-20T23:02:01.050Z,39.40
2019-02-20T23:04:30.903Z,43.37
2019-02-20T23:07:00.745Z,32.50
2019-02-20T23:10:08.484Z,30.37
2019-02-20T23:12:56.204Z,35.27
2019-02-20T23:15:22.315Z,34.10
2019-02-20T23:17:48.346Z,36.80
2019-02-20T23:20:14.551Z,32.63
2019-02-20T23:22:40.583Z,39.97
2019-02-20T23:25:06.596Z,37.60
2019-02-20T23:27:32.631Z,35.07
2019-02-20T23:29:58.649Z,31.13
2019-02-20T23:32:24.666Z,29.83
2019-02-20T23:34:50.693Z,39.50
2019-02-20T23:37:16.707Z,31.37
2019-02-20T23:39:42.734Z,30.30
2019-02-20T23:42:08.848Z,34.03
2019-02-20T23:44:35.476Z,30.33
2019-02-20T23:47:01.487Z,34.37
2019-02-20T23:49:27.515Z,37.17
2019-02-20T23:51:53.526Z,38.57
2019-02-20T23:54:19.573Z,38.37
2019-02-20T23:56:45.700Z,38.53
2019-02-20T23:59:13.833Z,32.37
